sensor_id;sensor_type;location;lat;lon;timestamp;P1;durP1;ratioP1;P2;durP2;ratioP2
64353;SDS011;50681;53.334;-6.536;2022-12-01T00:00:53;7.13;;;1.88;;
64353;SDS011;50681;53.334;-6.536;2022-12-01T00:03:19;9.35;;;1.83;;
64353;SDS011;50681;53.334;-6.536;2022-12-01T00:05:45;9.07;;;2.00;;
64353;SDS011;50681;53.334;-6.536;2022-12-01T00:08:10;7.63;;;2.00;;
64353;SDS011;50681;53.334;-6.536;2022-12-01T00:10:35;11.17;;;2.23;;
64353;SDS011;50681;53.334;-6.536;2022-12-01T00:13:03;8.00;;;1.65;;
64353;SDS011;50681;53.334;-6.536;2022-12-01T00:15:33;13.65;;;2.13;;
64353;SDS011;50681;53.334;-6.536;2022-12-01T00:18:00;12.63;;;2.05;;
64353;SDS011;50681;53.334;-6.536;2022-12-01T00:20:28;10.18;;;1.83;;
64353;SDS011;50681;53.334;-6.536;2022-12-01T00:22:55;12.05;;;2.22;;
64353;SDS011;50681;53.334;-6.536;2022-12-01T00:25:21;9.02;;;1.85;;
64353;SDS011;50681;53.334;-6.536;2022-12-01T00:27:47;5.63;;;1.93;;
64353;SDS011;50681;53.334;-6.536;2022-12-01T00:30:13;9.07;;;1.80;;
64353;SDS011;50681;53.334;-6.536;2022-12-01T00:32:40;6.72;;;1.50;;
64353;SDS011;50681;53.334;-6.536;2022-12-01T00:35:05;11.13;;;2.20;;
64353;SDS011;50681;53.334;-6.536;2022-12-01T00:37:32;4.43;;;1.80;;
64353;SDS011;50681;53.334;-6.536;2022-12-01T00:39:58;9.93;;;1.90;;
64353;SDS011;50681;53.334;-6.536;2022-12-01T00:42:24;12.38;;;2.28;;
64353;SDS011;50681;53.334;-6.536;2022-12-01T00:44:50;9.85;;;2.00;;
64353;SDS011;50681;53.334;-6.536;2022-12-01T00:47:16;9.03;;;2.07;;
64353;SDS011;50681;53.334;-6.536;2022-12-01T00:49:41;10.10;;;2.10;;
64353;SDS011;50681;53.334;-6.536;2022-12-01T00:52:09;16.65;;;2.40;;
64353;SDS011;50681;53.334;-6.536;2022-12-01T00:54:35;10.02;;;2.40;;
64353;SDS011;50681;53.334;-6.536;2022-12-01T00:57:00;16.90;;;2.67;;
64353;SDS011;50681;53.334;-6.536;2022-12-01T00:59:26;7.07;;;1.83;;
64353;SDS011;50681;53.334;-6.536;2022-12-01T01:01:51;7.50;;;1.80;;
64353;SDS011;50681;53.334;-6.536;2022-12-01T01:04:17;10.37;;;2.00;;
64353;SDS011;50681;53.334;-6.536;2022-12-01T01:06:43;7.25;;;2.22;;
64353;SDS011;50681;53.334;-6.536;2022-12-01T01:09:09;15.63;;;1.90;;
64353;SDS011;50681;53.334;-6.536;2022-12-01T01:11:35;6.95;;;2.08;;
64353;SDS011;50681;53.334;-6.536;2022-12-01T01:14:00;14.85;;;2.03;;
64353;SDS011;50681;53.334;-6.536;2022-12-01T01:16:26;7.23;;;1.90;;
64353;SDS011;50681;53.334;-6.536;2022-12-01T01:18:52;17.40;;;2.13;;
64353;SDS011;50681;53.334;-6.536;2022-12-01T01:21:19;12.63;;;1.90;;
64353;SDS011;50681;53.334;-6.536;2022-12-01T01:23:47;13.15;;;2.40;;
64353;SDS011;50681;53.334;-6.536;2022-12-01T01:28:52;21.08;;;2.47;;
64353;SDS011;50681;53.334;-6.536;2022-12-01T01:31:28;11.55;;;2.08;;
64353;SDS011;50681;53.334;-6.536;2022-12-01T01:33:55;10.00;;;2.20;;
64353;SDS011;50681;53.334;-6.536;2022-12-01T01:36:21;19.50;;;2.70;;
64353;SDS011;50681;53.334;-6.536;2022-12-01T01:38:47;8.85;;;2.10;;
64353;SDS011;50681;53.334;-6.536;2022-12-01T01:41:15;14.32;;;2.08;;
64353;SDS011;50681;53.334;-6.536;2022-12-01T01:43:46;8.48;;;2.00;;
64353;SDS011;50681;53.334;-6.536;2022-12-01T01:46:13;9.55;;;2.60;;
64353;SDS011;50681;53.334;-6.536;2022-12-01T01:48:41;10.02;;;2.20;;
64353;SDS011;50681;53.334;-6.536;2022-12-01T01:51:11;13.18;;;2.15;;
64353;SDS011;50681;53.334;-6.536;2022-12-01T01:53:39;11.45;;;2.15;;
64353;SDS011;50681;53.334;-6.536;2022-12-01T01:56:06;14.82;;;2.40;;
64353;SDS011;50681;53.334;-6.536;2022-12-01T01:58:35;10.48;;;1.80;;
64353;SDS011;50681;53.334;-6.536;2022-12-01T02:01:03;9.75;;;1.88;;
64353;SDS011;50681;53.334;-6.536;2022-12-01T02:03:29;11.50;;;2.17;;
64353;SDS011;50681;53.334;-6.536;2022-12-01T02:05:55;7.78;;;2.30;;
64353;SDS011;50681;53.334;-6.536;2022-12-01T02:10:55;8.57;;;2.05;;
64353;SDS011;50681;53.334;-6.536;2022-12-01T02:18:30;8.93;;;1.92;;
64353;SDS011;50681;53.334;-6.536;2022-12-01T02:32:29;9.27;;;1.90;;
64353;SDS011;50681;53.334;-6.536;2022-12-01T02:35:44;10.93;;;2.45;;
64353;SDS011;50681;53.334;-6.536;2022-12-01T02:37:50;8.40;;;1.70;;
64353;SDS011;50681;53.334;-6.536;2022-12-01T02:40:26;10.60;;;1.42;;
64353;SDS011;50681;53.334;-6.536;2022-12-01T02:43:02;9.27;;;2.38;;
64353;SDS011;50681;53.334;-6.536;2022-12-01T02:48:00;7.13;;;2.00;;
64353;SDS011;50681;53.334;-6.536;2022-12-01T02:50:29;14.05;;;1.80;;
64353;SDS011;50681;53.334;-6.536;2022-12-01T02:52:57;9.90;;;1.80;;
64353;SDS011;50681;53.334;-6.536;2022-12-01T02:55:26;11.20;;;1.77;;
64353;SDS011;50681;53.334;-6.536;2022-12-01T02:57:51;6.80;;;1.93;;
64353;SDS011;50681;53.334;-6.536;2022-12-01T03:00:17;19.30;;;2.00;;
64353;SDS011;50681;53.334;-6.536;2022-12-01T03:05:49;9.30;;;1.60;;
64353;SDS011;50681;53.334;-6.536;2022-12-01T03:11:10;5.10;;;1.77;;
64353;SDS011;50681;53.334;-6.536;2022-12-01T03:14:05;8.68;;;1.75;;
64353;SDS011;50681;53.334;-6.536;2022-12-01T03:16:51;11.55;;;1.58;;
64353;SDS011;50681;53.334;-6.536;2022-12-01T03:24:37;9.25;;;2.10;;
64353;SDS011;50681;53.334;-6.536;2022-12-01T03:27:05;8.68;;;1.88;;
64353;SDS011;50681;53.334;-6.536;2022-12-01T03:29:37;5.93;;;1.58;;
64353;SDS011;50681;53.334;-6.536;2022-12-01T03:32:12;7.70;;;2.00;;
64353;SDS011;50681;53.334;-6.536;2022-12-01T03:34:48;16.55;;;1.77;;
64353;SDS011;50681;53.334;-6.536;2022-12-01T03:37:20;10.50;;;1.73;;
64353;SDS011;50681;53.334;-6.536;2022-12-01T03:39:49;11.65;;;1.90;;
64353;SDS011;50681;53.334;-6.536;2022-12-01T03:42:28;8.82;;;1.70;;
64353;SDS011;50681;53.334;-6.536;2022-12-01T03:45:02;11.75;;;2.25;;
64353;SDS011;50681;53.334;-6.536;2022-12-01T03:47:34;5.82;;;1.77;;
64353;SDS011;50681;53.334;-6.536;2022-12-01T03:50:01;13.48;;;1.63;;
64353;SDS011;50681;53.334;-6.536;2022-12-01T03:52:37;4.45;;;1.30;;
64353;SDS011;50681;53.334;-6.536;2022-12-01T03:55:13;8.30;;;1.90;;
64353;SDS011;50681;53.334;-6.536;2022-12-01T03:57:50;17.27;;;2.30;;
64353;SDS011;50681;53.334;-6.536;2022-12-01T04:00:21;7.38;;;1.45;;
64353;SDS011;50681;53.334;-6.536;2022-12-01T04:02:53;7.22;;;1.75;;
64353;SDS011;50681;53.334;-6.536;2022-12-01T04:05:20;17.05;;;2.15;;
64353;SDS011;50681;53.334;-6.536;2022-12-01T04:07:46;8.13;;;1.63;;
64353;SDS011;50681;53.334;-6.536;2022-12-01T04:10:11;9.60;;;1.53;;
64353;SDS011;50681;53.334;-6.536;2022-12-01T04:12:37;7.83;;;1.70;;
64353;SDS011;50681;53.334;-6.536;2022-12-01T04:15:03;11.50;;;2.10;;
64353;SDS011;50681;53.334;-6.536;2022-12-01T04:17:32;9.23;;;1.83;;
64353;SDS011;50681;53.334;-6.536;2022-12-01T04:19:58;12.88;;;1.60;;
64353;SDS011;50681;53.334;-6.536;2022-12-01T04:22:24;9.98;;;1.42;;
64353;SDS011;50681;53.334;-6.536;2022-12-01T04:24:49;8.70;;;1.90;;
64353;SDS011;50681;53.334;-6.536;2022-12-01T04:27:15;9.90;;;1.60;;
64353;SDS011;50681;53.334;-6.536;2022-12-01T04:29:40;13.27;;;1.63;;
64353;SDS011;50681;53.334;-6.536;2022-12-01T04:32:06;14.83;;;1.80;;
64353;SDS011;50681;53.334;-6.536;2022-12-01T04:34:31;12.83;;;1.90;;
64353;SDS011;50681;53.334;-6.536;2022-12-01T04:36:57;9.90;;;1.67;;
64353;SDS011;50681;53.334;-6.536;2022-12-01T04:39:22;8.03;;;2.30;;
64353;SDS011;50681;53.334;-6.536;2022-12-01T04:41:48;7.47;;;1.27;;
64353;SDS011;50681;53.334;-6.536;2022-12-01T04:44:14;8.17;;;1.70;;
64353;SDS011;50681;53.334;-6.536;2022-12-01T04:46:41;10.05;;;1.70;;
64353;SDS011;50681;53.334;-6.536;2022-12-01T04:51:32;8.80;;;2.10;;
64353;SDS011;50681;53.334;-6.536;2022-12-01T04:53:57;4.43;;;1.50;;
64353;SDS011;50681;53.334;-6.536;2022-12-01T04:56:23;7.20;;;1.53;;
64353;SDS011;50681;53.334;-6.536;2022-12-01T04:58:48;13.00;;;1.90;;
64353;SDS011;50681;53.334;-6.536;2022-12-01T05:01:15;9.65;;;2.13;;
64353;SDS011;50681;53.334;-6.536;2022-12-01T05:03:42;13.07;;;1.60;;
64353;SDS011;50681;53.334;-6.536;2022-12-01T05:06:11;12.13;;;1.90;;
64353;SDS011;50681;53.334;-6.536;2022-12-01T05:08:38;8.65;;;1.40;;
64353;SDS011;50681;53.334;-6.536;2022-12-01T05:11:04;4.18;;;1.20;;
64353;SDS011;50681;53.334;-6.536;2022-12-01T05:13:31;8.10;;;1.52;;
64353;SDS011;50681;53.334;-6.536;2022-12-01T05:16:04;15.70;;;2.15;;
64353;SDS011;50681;53.334;-6.536;2022-12-01T05:18:34;7.38;;;1.50;;
64353;SDS011;50681;53.334;-6.536;2022-12-01T05:21:00;24.97;;;2.23;;
64353;SDS011;50681;53.334;-6.536;2022-12-01T05:23:28;10.50;;;1.92;;
64353;SDS011;50681;53.334;-6.536;2022-12-01T05:25:56;11.45;;;1.80;;
64353;SDS011;50681;53.334;-6.536;2022-12-01T05:28:22;6.53;;;2.00;;
64353;SDS011;50681;53.334;-6.536;2022-12-01T05:30:50;8.23;;;1.60;;
64353;SDS011;50681;53.334;-6.536;2022-12-01T05:33:15;9.10;;;1.47;;
64353;SDS011;50681;53.334;-6.536;2022-12-01T05:35:41;13.02;;;2.30;;
64353;SDS011;50681;53.334;-6.536;2022-12-01T05:38:06;9.50;;;2.03;;
64353;SDS011;50681;53.334;-6.536;2022-12-01T05:40:32;5.17;;;1.70;;
64353;SDS011;50681;53.334;-6.536;2022-12-01T05:42:58;9.13;;;1.88;;
64353;SDS011;50681;53.334;-6.536;2022-12-01T05:45:24;10.52;;;2.10;;
64353;SDS011;50681;53.334;-6.536;2022-12-01T05:47:53;10.68;;;1.98;;
64353;SDS011;50681;53.334;-6.536;2022-12-01T05:50:19;10.07;;;1.40;;
64353;SDS011;50681;53.334;-6.536;2022-12-01T05:52:45;9.55;;;2.13;;
64353;SDS011;50681;53.334;-6.536;2022-12-01T05:55:11;8.43;;;1.97;;
64353;SDS011;50681;53.334;-6.536;2022-12-01T05:57:36;7.60;;;2.13;;
64353;SDS011;50681;53.334;-6.536;2022-12-01T06:00:02;13.30;;;1.87;;
64353;SDS011;50681;53.334;-6.536;2022-12-01T06:02:29;6.07;;;1.65;;
64353;SDS011;50681;53.334;-6.536;2022-12-01T06:04:55;8.70;;;1.70;;
64353;SDS011;50681;53.334;-6.536;2022-12-01T06:07:22;14.88;;;2.55;;
64353;SDS011;50681;53.334;-6.536;2022-12-01T06:09:49;11.43;;;2.40;;
64353;SDS011;50681;53.334;-6.536;2022-12-01T06:12:15;11.23;;;2.20;;
64353;SDS011;50681;53.334;-6.536;2022-12-01T06:14:41;12.27;;;1.67;;
64353;SDS011;50681;53.334;-6.536;2022-12-01T06:17:06;9.60;;;2.70;;
64353;SDS011;50681;53.334;-6.536;2022-12-01T06:19:32;14.50;;;2.40;;
64353;SDS011;50681;53.334;-6.536;2022-12-01T06:21:57;18.77;;;2.17;;
64353;SDS011;50681;53.334;-6.536;2022-12-01T06:24:23;10.13;;;2.10;;
64353;SDS011;50681;53.334;-6.536;2022-12-01T06:26:48;9.63;;;2.07;;
64353;SDS011;50681;53.334;-6.536;2022-12-01T06:29:14;12.80;;;2.27;;
64353;SDS011;50681;53.334;-6.536;2022-12-01T06:31:39;9.80;;;2.47;;
64353;SDS011;50681;53.334;-6.536;2022-12-01T06:34:05;15.63;;;2.33;;
64353;SDS011;50681;53.334;-6.536;2022-12-01T06:36:30;12.03;;;2.37;;
64353;SDS011;50681;53.334;-6.536;2022-12-01T06:38:57;17.30;;;2.88;;
64353;SDS011;50681;53.334;-6.536;2022-12-01T06:41:23;12.40;;;2.47;;
64353;SDS011;50681;53.334;-6.536;2022-12-01T06:43:48;10.40;;;2.50;;
64353;SDS011;50681;53.334;-6.536;2022-12-01T06:46:15;12.50;;;2.75;;
64353;SDS011;50681;53.334;-6.536;2022-12-01T06:48:40;10.07;;;3.17;;
64353;SDS011;50681;53.334;-6.536;2022-12-01T06:51:06;13.67;;;2.60;;
64353;SDS011;50681;53.334;-6.536;2022-12-01T06:53:31;13.30;;;3.00;;
64353;SDS011;50681;53.334;-6.536;2022-12-01T06:56:00;16.63;;;2.87;;
64353;SDS011;50681;53.334;-6.536;2022-12-01T06:58:27;9.20;;;2.08;;
64353;SDS011;50681;53.334;-6.536;2022-12-01T07:00:53;15.03;;;2.60;;
64353;SDS011;50681;53.334;-6.536;2022-12-01T07:03:18;17.23;;;2.43;;
64353;SDS011;50681;53.334;-6.536;2022-12-01T07:05:44;8.37;;;2.40;;
64353;SDS011;50681;53.334;-6.536;2022-12-01T07:08:09;16.57;;;2.47;;
64353;SDS011;50681;53.334;-6.536;2022-12-01T07:10:36;13.45;;;2.78;;
64353;SDS011;50681;53.334;-6.536;2022-12-01T07:13:01;17.03;;;2.60;;
64353;SDS011;50681;53.334;-6.536;2022-12-01T07:15:27;11.53;;;2.47;;
64353;SDS011;50681;53.334;-6.536;2022-12-01T07:17:52;9.57;;;2.58;;
64353;SDS011;50681;53.334;-6.536;2022-12-01T07:20:18;10.47;;;2.27;;
64353;SDS011;50681;53.334;-6.536;2022-12-01T07:22:44;16.95;;;2.72;;
64353;SDS011;50681;53.334;-6.536;2022-12-01T07:25:09;12.50;;;2.30;;
64353;SDS011;50681;53.334;-6.536;2022-12-01T07:27:35;14.90;;;2.57;;
64353;SDS011;50681;53.334;-6.536;2022-12-01T07:30:00;15.70;;;3.40;;
64353;SDS011;50681;53.334;-6.536;2022-12-01T07:32:27;17.73;;;2.43;;
64353;SDS011;50681;53.334;-6.536;2022-12-01T07:34:52;8.27;;;2.40;;
64353;SDS011;50681;53.334;-6.536;2022-12-01T07:37:17;11.73;;;2.50;;
64353;SDS011;50681;53.334;-6.536;2022-12-01T07:39:43;11.60;;;2.83;;
64353;SDS011;50681;53.334;-6.536;2022-12-01T07:42:08;14.43;;;3.30;;
64353;SDS011;50681;53.334;-6.536;2022-12-01T07:44:34;11.40;;;2.97;;
64353;SDS011;50681;53.334;-6.536;2022-12-01T07:46:59;18.57;;;2.50;;
64353;SDS011;50681;53.334;-6.536;2022-12-01T07:49:25;23.67;;;4.60;;
64353;SDS011;50681;53.334;-6.536;2022-12-01T07:51:52;16.08;;;2.60;;
64353;SDS011;50681;53.334;-6.536;2022-12-01T07:54:18;11.85;;;2.78;;
64353;SDS011;50681;53.334;-6.536;2022-12-01T07:56:45;12.60;;;3.35;;
64353;SDS011;50681;53.334;-6.536;2022-12-01T07:59:10;12.80;;;2.60;;
64353;SDS011;50681;53.334;-6.536;2022-12-01T08:01:36;13.07;;;2.40;;
64353;SDS011;50681;53.334;-6.536;2022-12-01T08:04:02;10.65;;;2.70;;
64353;SDS011;50681;53.334;-6.536;2022-12-01T08:06:28;10.70;;;2.80;;
64353;SDS011;50681;53.334;-6.536;2022-12-01T08:08:54;18.77;;;3.00;;
64353;SDS011;50681;53.334;-6.536;2022-12-01T08:11:24;11.60;;;2.65;;
64353;SDS011;50681;53.334;-6.536;2022-12-01T08:13:51;10.63;;;2.92;;
64353;SDS011;50681;53.334;-6.536;2022-12-01T08:18:43;7.88;;;2.40;;
64353;SDS011;50681;53.334;-6.536;2022-12-01T08:21:10;13.73;;;2.70;;
64353;SDS011;50681;53.334;-6.536;2022-12-01T08:23:37;13.45;;;2.85;;
64353;SDS011;50681;53.334;-6.536;2022-12-01T08:26:04;14.25;;;2.80;;
64353;SDS011;50681;53.334;-6.536;2022-12-01T08:28:33;10.38;;;2.65;;
64353;SDS011;50681;53.334;-6.536;2022-12-01T08:31:10;11.52;;;2.65;;
64353;SDS011;50681;53.334;-6.536;2022-12-01T08:33:36;12.75;;;2.92;;
64353;SDS011;50681;53.334;-6.536;2022-12-01T08:36:02;12.00;;;2.43;;
64353;SDS011;50681;53.334;-6.536;2022-12-01T08:40:53;8.82;;;2.70;;
64353;SDS011;50681;53.334;-6.536;2022-12-01T08:43:21;7.07;;;2.17;;
64353;SDS011;50681;53.334;-6.536;2022-12-01T08:45:46;5.93;;;1.80;;
64353;SDS011;50681;53.334;-6.536;2022-12-01T08:48:12;16.95;;;2.65;;
64353;SDS011;50681;53.334;-6.536;2022-12-01T08:50:38;11.40;;;2.50;;
64353;SDS011;50681;53.334;-6.536;2022-12-01T08:53:03;11.43;;;2.70;;
64353;SDS011;50681;53.334;-6.536;2022-12-01T08:55:28;11.17;;;2.50;;
64353;SDS011;50681;53.334;-6.536;2022-12-01T08:57:54;10.47;;;2.67;;
64353;SDS011;50681;53.334;-6.536;2022-12-01T09:00:19;21.17;;;2.50;;
64353;SDS011;50681;53.334;-6.536;2022-12-01T09:02:45;14.40;;;2.50;;
64353;SDS011;50681;53.334;-6.536;2022-12-01T09:05:19;10.77;;;2.47;;
64353;SDS011;50681;53.334;-6.536;2022-12-01T09:07:53;9.75;;;2.80;;
64353;SDS011;50681;53.334;-6.536;2022-12-01T09:10:40;20.77;;;2.55;;
64353;SDS011;50681;53.334;-6.536;2022-12-01T09:13:15;9.13;;;2.35;;
64353;SDS011;50681;53.334;-6.536;2022-12-01T09:15:43;8.55;;;3.42;;
64353;SDS011;50681;53.334;-6.536;2022-12-01T09:18:13;10.30;;;2.60;;
64353;SDS011;50681;53.334;-6.536;2022-12-01T09:20:53;30.85;;;16.35;;
64353;SDS011;50681;53.334;-6.536;2022-12-01T09:23:20;7.03;;;3.92;;
64353;SDS011;50681;53.334;-6.536;2022-12-01T09:25:48;9.95;;;3.67;;
64353;SDS011;50681;53.334;-6.536;2022-12-01T09:28:16;14.30;;;3.67;;
64353;SDS011;50681;53.334;-6.536;2022-12-01T09:30:45;8.77;;;5.72;;
64353;SDS011;50681;53.334;-6.536;2022-12-01T09:33:12;13.23;;;4.15;;
64353;SDS011;50681;53.334;-6.536;2022-12-01T09:35:56;10.98;;;3.47;;
64353;SDS011;50681;53.334;-6.536;2022-12-01T09:38:24;14.60;;;5.00;;
64353;SDS011;50681;53.334;-6.536;2022-12-01T09:40:53;15.57;;;5.45;;
64353;SDS011;50681;53.334;-6.536;2022-12-01T09:43:27;11.75;;;4.38;;
64353;SDS011;50681;53.334;-6.536;2022-12-01T09:46:00;25.50;;;15.50;;
64353;SDS011;50681;53.334;-6.536;2022-12-01T09:48:37;12.95;;;5.93;;
64353;SDS011;50681;53.334;-6.536;2022-12-01T09:51:17;9.90;;;2.80;;
64353;SDS011;50681;53.334;-6.536;2022-12-01T09:53:57;62.40;;;34.22;;
64353;SDS011;50681;53.334;-6.536;2022-12-01T09:56:29;20.48;;;9.95;;
64353;SDS011;50681;53.334;-6.536;2022-12-01T09:59:31;33.95;;;17.13;;
64353;SDS011;50681;53.334;-6.536;2022-12-01T10:02:02;66.88;;;32.80;;
64353;SDS011;50681;53.334;-6.536;2022-12-01T10:04:45;73.60;;;37.72;;
64353;SDS011;50681;53.334;-6.536;2022-12-01T10:10:30;19.67;;;11.90;;
64353;SDS011;50681;53.334;-6.536;2022-12-01T10:13:01;20.02;;;6.82;;
64353;SDS011;50681;53.334;-6.536;2022-12-01T10:24:07;27.65;;;12.73;;
64353;SDS011;50681;53.334;-6.536;2022-12-01T10:27:37;17.02;;;5.93;;
64353;SDS011;50681;53.334;-6.536;2022-12-01T10:35:25;15.00;;;4.30;;
64353;SDS011;50681;53.334;-6.536;2022-12-01T10:38:01;14.80;;;3.70;;
64353;SDS011;50681;53.334;-6.536;2022-12-01T10:40:31;11.00;;;3.80;;
64353;SDS011;50681;53.334;-6.536;2022-12-01T10:42:59;11.10;;;4.13;;
64353;SDS011;50681;53.334;-6.536;2022-12-01T10:45:29;9.60;;;4.28;;
64353;SDS011;50681;53.334;-6.536;2022-12-01T10:50:33;9.68;;;4.15;;
64353;SDS011;50681;53.334;-6.536;2022-12-01T10:52:59;9.43;;;3.85;;
64353;SDS011;50681;53.334;-6.536;2022-12-01T10:55:30;14.77;;;4.78;;
64353;SDS011;50681;53.334;-6.536;2022-12-01T10:57:59;14.38;;;3.35;;
64353;SDS011;50681;53.334;-6.536;2022-12-01T11:00:41;11.73;;;3.25;;
64353;SDS011;50681;53.334;-6.536;2022-12-01T11:03:16;10.55;;;3.25;;
64353;SDS011;50681;53.334;-6.536;2022-12-01T11:05:51;14.48;;;3.50;;
64353;SDS011;50681;53.334;-6.536;2022-12-01T11:08:24;16.98;;;6.30;;
64353;SDS011;50681;53.334;-6.536;2022-12-01T11:17:42;50.20;;;25.50;;
64353;SDS011;50681;53.334;-6.536;2022-12-01T11:23:37;25.65;;;11.77;;
64353;SDS011;50681;53.334;-6.536;2022-12-01T11:25:54;23.80;;;9.50;;
64353;SDS011;50681;53.334;-6.536;2022-12-01T11:28:23;15.63;;;7.05;;
64353;SDS011;50681;53.334;-6.536;2022-12-01T11:33:59;51.25;;;26.65;;
64353;SDS011;50681;53.334;-6.536;2022-12-01T11:36:37;18.03;;;7.13;;
64353;SDS011;50681;53.334;-6.536;2022-12-01T11:42:03;30.60;;;11.93;;
64353;SDS011;50681;53.334;-6.536;2022-12-01T11:44:35;32.90;;;14.10;;
64353;SDS011;50681;53.334;-6.536;2022-12-01T11:49:39;16.15;;;5.45;;
64353;SDS011;50681;53.334;-6.536;2022-12-01T11:52:22;25.83;;;12.43;;
64353;SDS011;50681;53.334;-6.536;2022-12-01T11:54:53;20.35;;;9.02;;
64353;SDS011;50681;53.334;-6.536;2022-12-01T11:57:34;27.05;;;15.18;;
64353;SDS011;50681;53.334;-6.536;2022-12-01T12:00:12;22.60;;;7.25;;
64353;SDS011;50681;53.334;-6.536;2022-12-01T12:02:46;21.95;;;11.27;;
64353;SDS011;50681;53.334;-6.536;2022-12-01T12:14:13;33.58;;;16.90;;
64353;SDS011;50681;53.334;-6.536;2022-12-01T12:24:44;40.00;;;15.20;;
64353;SDS011;50681;53.334;-6.536;2022-12-01T12:32:56;7.97;;;3.67;;
64353;SDS011;50681;53.334;-6.536;2022-12-01T12:41:25;17.25;;;7.13;;
64353;SDS011;50681;53.334;-6.536;2022-12-01T12:43:58;36.80;;;12.55;;
64353;SDS011;50681;53.334;-6.536;2022-12-01T12:52:34;16.80;;;6.55;;
64353;SDS011;50681;53.334;-6.536;2022-12-01T12:55:12;23.13;;;6.80;;
64353;SDS011;50681;53.334;-6.536;2022-12-01T12:57:54;23.42;;;9.30;;
64353;SDS011;50681;53.334;-6.536;2022-12-01T13:00:26;15.32;;;7.20;;
64353;SDS011;50681;53.334;-6.536;2022-12-01T13:02:57;12.10;;;5.60;;
64353;SDS011;50681;53.334;-6.536;2022-12-01T13:08:41;24.83;;;9.20;;
64353;SDS011;50681;53.334;-6.536;2022-12-01T13:11:08;35.33;;;17.70;;
64353;SDS011;50681;53.334;-6.536;2022-12-01T13:16:27;9.13;;;4.03;;
64353;SDS011;50681;53.334;-6.536;2022-12-01T13:19:10;16.27;;;4.65;;
64353;SDS011;50681;53.334;-6.536;2022-12-01T13:21:47;14.52;;;4.20;;
64353;SDS011;50681;53.334;-6.536;2022-12-01T13:24:17;9.27;;;3.92;;
64353;SDS011;50681;53.334;-6.536;2022-12-01T13:26:46;16.17;;;4.85;;
64353;SDS011;50681;53.334;-6.536;2022-12-01T13:29:16;13.65;;;3.92;;
64353;SDS011;50681;53.334;-6.536;2022-12-01T13:31:46;11.88;;;5.35;;
64353;SDS011;50681;53.334;-6.536;2022-12-01T13:34:24;19.25;;;8.30;;
64353;SDS011;50681;53.334;-6.536;2022-12-01T13:36:55;18.60;;;8.85;;
64353;SDS011;50681;53.334;-6.536;2022-12-01T13:39:28;171.37;;;60.20;;
64353;SDS011;50681;53.334;-6.536;2022-12-01T13:42:06;51.83;;;22.30;;
64353;SDS011;50681;53.334;-6.536;2022-12-01T13:44:53;101.40;;;48.58;;
64353;SDS011;50681;53.334;-6.536;2022-12-01T13:49:56;76.32;;;32.92;;
64353;SDS011;50681;53.334;-6.536;2022-12-01T13:57:37;30.13;;;21.42;;
64353;SDS011;50681;53.334;-6.536;2022-12-01T14:11:16;17.15;;;4.45;;
64353;SDS011;50681;53.334;-6.536;2022-12-01T14:13:52;21.42;;;4.68;;
64353;SDS011;50681;53.334;-6.536;2022-12-01T14:16:23;9.40;;;3.55;;
64353;SDS011;50681;53.334;-6.536;2022-12-01T14:18:54;10.65;;;4.10;;
64353;SDS011;50681;53.334;-6.536;2022-12-01T14:27:17;14.50;;;5.93;;
64353;SDS011;50681;53.334;-6.536;2022-12-01T14:44:19;16.63;;;4.75;;
64353;SDS011;50681;53.334;-6.536;2022-12-01T14:49:46;14.00;;;5.45;;
64353;SDS011;50681;53.334;-6.536;2022-12-01T14:52:34;24.55;;;6.32;;
64353;SDS011;50681;53.334;-6.536;2022-12-01T14:55:03;10.10;;;4.95;;
64353;SDS011;50681;53.334;-6.536;2022-12-01T14:57:38;17.00;;;6.38;;
64353;SDS011;50681;53.334;-6.536;2022-12-01T15:00:12;15.98;;;4.93;;
64353;SDS011;50681;53.334;-6.536;2022-12-01T15:02:58;16.48;;;5.60;;
64353;SDS011;50681;53.334;-6.536;2022-12-01T15:05:27;15.93;;;5.75;;
64353;SDS011;50681;53.334;-6.536;2022-12-01T15:07:56;20.67;;;7.22;;
64353;SDS011;50681;53.334;-6.536;2022-12-01T15:10:24;20.45;;;7.20;;
64353;SDS011;50681;53.334;-6.536;2022-12-01T15:15:58;19.52;;;8.90;;
64353;SDS011;50681;53.334;-6.536;2022-12-01T15:18:27;14.48;;;6.38;;
64353;SDS011;50681;53.334;-6.536;2022-12-01T15:20:55;14.00;;;5.32;;
64353;SDS011;50681;53.334;-6.536;2022-12-01T15:23:34;17.48;;;4.82;;
64353;SDS011;50681;53.334;-6.536;2022-12-01T15:25:59;11.43;;;3.75;;
64353;SDS011;50681;53.334;-6.536;2022-12-01T15:28:32;8.77;;;3.65;;
64353;SDS011;50681;53.334;-6.536;2022-12-01T15:30:59;15.23;;;4.88;;
64353;SDS011;50681;53.334;-6.536;2022-12-01T15:33:36;11.68;;;3.58;;
64353;SDS011;50681;53.334;-6.536;2022-12-01T15:36:16;13.52;;;6.60;;
64353;SDS011;50681;53.334;-6.536;2022-12-01T15:38:42;22.65;;;11.25;;
64353;SDS011;50681;53.334;-6.536;2022-12-01T15:41:15;24.70;;;11.90;;
64353;SDS011;50681;53.334;-6.536;2022-12-01T15:43:42;19.55;;;9.52;;
64353;SDS011;50681;53.334;-6.536;2022-12-01T15:46:12;17.60;;;8.07;;
64353;SDS011;50681;53.334;-6.536;2022-12-01T15:48:42;21.83;;;10.52;;
64353;SDS011;50681;53.334;-6.536;2022-12-01T15:51:24;25.90;;;12.65;;
64353;SDS011;50681;53.334;-6.536;2022-12-01T15:53:52;14.73;;;8.48;;
64353;SDS011;50681;53.334;-6.536;2022-12-01T15:56:29;22.85;;;9.00;;
64353;SDS011;50681;53.334;-6.536;2022-12-01T15:59:07;50.22;;;24.02;;
64353;SDS011;50681;53.334;-6.536;2022-12-01T16:01:40;31.65;;;16.00;;
64353;SDS011;50681;53.334;-6.536;2022-12-01T16:04:24;17.17;;;6.25;;
64353;SDS011;50681;53.334;-6.536;2022-12-01T16:06:57;14.00;;;6.55;;
64353;SDS011;50681;53.334;-6.536;2022-12-01T16:09:35;16.02;;;5.75;;
64353;SDS011;50681;53.334;-6.536;2022-12-01T16:17:46;12.55;;;3.38;;
64353;SDS011;50681;53.334;-6.536;2022-12-01T16:20:24;12.45;;;3.80;;
64353;SDS011;50681;53.334;-6.536;2022-12-01T16:23:14;18.13;;;3.95;;
64353;SDS011;50681;53.334;-6.536;2022-12-01T16:25:47;9.68;;;3.65;;
64353;SDS011;50681;53.334;-6.536;2022-12-01T16:31:05;12.38;;;3.50;;
64353;SDS011;50681;53.334;-6.536;2022-12-01T16:33:34;15.35;;;4.00;;
64353;SDS011;50681;53.334;-6.536;2022-12-01T16:36:02;17.35;;;3.75;;
64353;SDS011;50681;53.334;-6.536;2022-12-01T16:38:31;21.33;;;6.10;;
64353;SDS011;50681;53.334;-6.536;2022-12-01T16:40:59;33.35;;;11.52;;
64353;SDS011;50681;53.334;-6.536;2022-12-01T16:43:27;32.05;;;18.42;;
64353;SDS011;50681;53.334;-6.536;2022-12-01T16:45:58;29.08;;;18.98;;
64353;SDS011;50681;53.334;-6.536;2022-12-01T16:48:37;28.40;;;15.48;;
64353;SDS011;50681;53.334;-6.536;2022-12-01T16:51:35;41.53;;;21.80;;
64353;SDS011;50681;53.334;-6.536;2022-12-01T16:54:08;37.00;;;23.65;;
64353;SDS011;50681;53.334;-6.536;2022-12-01T16:57:01;35.72;;;20.77;;
64353;SDS011;50681;53.334;-6.536;2022-12-01T16:59:43;31.83;;;17.67;;
64353;SDS011;50681;53.334;-6.536;2022-12-01T17:05:09;35.35;;;19.52;;
64353;SDS011;50681;53.334;-6.536;2022-12-01T17:08:23;31.13;;;14.25;;
64353;SDS011;50681;53.334;-6.536;2022-12-01T17:10:49;35.35;;;18.70;;
64353;SDS011;50681;53.334;-6.536;2022-12-01T17:13:23;32.58;;;20.15;;
64353;SDS011;50681;53.334;-6.536;2022-12-01T17:16:03;19.60;;;10.82;;
64353;SDS011;50681;53.334;-6.536;2022-12-01T17:21:50;38.85;;;19.67;;
64353;SDS011;50681;53.334;-6.536;2022-12-01T17:24:20;62.47;;;33.35;;
64353;SDS011;50681;53.334;-6.536;2022-12-01T17:27:05;24.65;;;14.55;;
64353;SDS011;50681;53.334;-6.536;2022-12-01T17:29:52;29.50;;;16.05;;
64353;SDS011;50681;53.334;-6.536;2022-12-01T17:32:31;22.50;;;11.65;;
64353;SDS011;50681;53.334;-6.536;2022-12-01T17:38:24;25.77;;;11.73;;
64353;SDS011;50681;53.334;-6.536;2022-12-01T17:41:16;39.00;;;19.15;;
64353;SDS011;50681;53.334;-6.536;2022-12-01T17:44:08;37.67;;;21.02;;
64353;SDS011;50681;53.334;-6.536;2022-12-01T17:49:10;17.40;;;8.38;;